createdAt,value
2018-09-14T00:01:18.190Z,13.30
2018-09-14T00:03:44.818Z,13.30
2018-09-14T00:06:11.455Z,13.30
2018-09-14T00:08:38.067Z,13.40
2018-09-14T00:11:04.732Z,13.30
2018-09-14T00:13:31.650Z,13.30
2018-09-14T00:15:58.287Z,13.30
2018-09-14T00:18:24.894Z,13.30
2018-09-14T00:20:51.532Z,13.20
2018-09-14T00:23:18.148Z,13.30
2018-09-14T00:25:44.889Z,13.30
2018-09-14T00:28:11.545Z,13.30
2018-09-14T00:30:38.187Z,13.40
2018-09-14T00:33:04.970Z,13.40
2018-09-14T00:35:31.607Z,13.40
2018-09-14T00:37:58.211Z,13.40
2018-09-14T00:40:24.839Z,13.40
2018-09-14T00:42:51.446Z,13.40
2018-09-14T00:45:18.086Z,13.40
2018-09-14T00:47:44.699Z,13.40
2018-09-14T00:50:12.031Z,13.30
2018-09-14T00:52:38.847Z,13.30
2018-09-14T00:55:05.487Z,13.30
2018-09-14T00:57:32.190Z,13.20
2018-09-14T00:59:58.814Z,13.20
2018-09-14T01:02:26.683Z,13.20
2018-09-14T01:04:53.526Z,13.00
2018-09-14T01:07:20.739Z,13.00
2018-09-14T01:09:47.835Z,12.90
2018-09-14T01:12:14.487Z,12.90
2018-09-14T01:14:41.101Z,12.90
2018-09-14T01:17:07.766Z,13.00
2018-09-14T01:19:34.382Z,13.10
2018-09-14T01:22:01.051Z,13.10
2018-09-14T01:24:27.663Z,13.10
2018-09-14T01:26:54.305Z,13.10
2018-09-14T01:29:21.211Z,13.20
2018-09-14T01:31:47.843Z,13.30
2018-09-14T01:34:14.575Z,13.30
2018-09-14T01:36:41.212Z,13.30
2018-09-14T01:39:08.673Z,13.40
2018-09-14T01:41:35.307Z,13.40
2018-09-14T01:44:01.915Z,13.40
2018-09-14T01:46:28.557Z,13.40
2018-09-14T01:48:55.502Z,13.40
2018-09-14T01:51:22.135Z,13.40
2018-09-14T01:53:49.068Z,13.40
2018-09-14T01:56:15.743Z,13.40
2018-09-14T01:58:42.362Z,13.40
2018-09-14T02:01:08.999Z,13.40
2018-09-14T02:03:35.627Z,13.50
2018-09-14T02:06:02.239Z,13.40
2018-09-14T02:08:28.875Z,13.40
2018-09-14T02:10:55.516Z,13.40
2018-09-14T02:13:22.151Z,13.50
2018-09-14T02:15:49.178Z,13.40
2018-09-14T02:18:15.815Z,13.40
2018-09-14T02:20:42.423Z,13.40
2018-09-14T02:23:09.055Z,13.40
2018-09-14T02:25:35.733Z,13.30
2018-09-14T02:28:02.348Z,13.40
2018-09-14T02:30:28.965Z,13.40
2018-09-14T02:32:55.604Z,13.30
2018-09-14T02:35:22.223Z,13.30
2018-09-14T02:37:48.863Z,13.30
2018-09-14T02:40:15.475Z,13.30
2018-09-14T02:42:42.123Z,13.30
2018-09-14T02:45:09.059Z,13.30
2018-09-14T02:47:35.703Z,13.30
2018-09-14T02:50:02.582Z,13.30
2018-09-14T02:52:29.224Z,13.30
2018-09-14T02:54:55.862Z,13.20
2018-09-14T02:57:22.531Z,13.10
2018-09-14T02:59:49.147Z,13.10
2018-09-14T03:02:15.833Z,13.10
2018-09-14T03:04:42.495Z,13.10
2018-09-14T03:07:09.127Z,13.10
2018-09-14T03:09:35.767Z,13.10
2018-09-14T03:12:02.374Z,13.10
2018-09-14T03:14:29.007Z,13.00
2018-09-14T03:16:55.611Z,13.00
2018-09-14T03:19:22.251Z,13.00
2018-09-14T03:21:48.910Z,13.00
2018-09-14T03:24:15.550Z,13.10
2018-09-14T03:26:42.161Z,13.00
2018-09-14T03:29:08.810Z,13.00
2018-09-14T03:31:36.007Z,13.00
2018-09-14T03:34:02.940Z,12.90
2018-09-14T03:36:29.803Z,12.90
2018-09-14T03:38:56.436Z,12.90
2018-09-14T03:41:23.259Z,12.90
2018-09-14T03:43:50.234Z,12.90
2018-09-14T03:46:16.846Z,12.90
2018-09-14T03:48:43.489Z,13.00
2018-09-14T03:51:10.099Z,13.00
2018-09-14T03:53:36.762Z,12.90
2018-09-14T03:56:03.771Z,12.90
2018-09-14T03:58:30.403Z,12.90
2018-09-14T04:00:57.039Z,12.90
2018-09-14T04:03:23.835Z,12.80
2018-09-14T04:05:50.475Z,12.90
2018-09-14T04:08:17.091Z,12.90
2018-09-14T04:10:43.733Z,12.80
2018-09-14T04:13:10.349Z,12.90
2018-09-14T04:15:37.010Z,12.80
2018-09-14T04:18:03.651Z,12.80
2018-09-14T04:20:30.291Z,12.80
2018-09-14T04:22:56.899Z,12.70
2018-09-14T04:25:23.543Z,12.70
2018-09-14T04:27:50.172Z,12.80
2018-09-14T04:30:16.819Z,12.70
2018-09-14T04:32:43.435Z,12.70
2018-09-14T04:35:10.290Z,12.80
2018-09-14T04:37:36.940Z,12.80
2018-09-14T04:40:03.751Z,12.70
2018-09-14T04:42:30.367Z,12.80
2018-09-14T04:44:57.322Z,12.70
2018-09-14T04:47:23.931Z,12.70
2018-09-14T04:49:50.566Z,12.70
2018-09-14T04:52:17.954Z,12.70
2018-09-14T04:54:44.582Z,12.70
2018-09-14T04:57:11.296Z,12.70
2018-09-14T04:59:37.949Z,12.70
2018-09-14T05:02:04.611Z,12.70
2018-09-14T05:04:32.163Z,12.80
2018-09-14T05:06:58.832Z,12.80
2018-09-14T05:09:25.427Z,12.80
2018-09-14T05:11:52.187Z,12.90
2018-09-14T05:14:21.887Z,12.90
2018-09-14T05:16:48.496Z,12.90
2018-09-14T05:19:15.136Z,12.90
2018-09-14T05:21:41.826Z,13.00
2018-09-14T05:24:08.600Z,13.00
2018-09-14T05:26:35.279Z,13.00
2018-09-14T05:29:01.895Z,13.00
2018-09-14T05:31:28.535Z,12.90
2018-09-14T05:33:55.152Z,12.90
2018-09-14T05:36:21.787Z,12.90
2018-09-14T05:38:48.394Z,12.80
2018-09-14T05:41:15.027Z,12.90
2018-09-14T05:43:41.640Z,13.00
2018-09-14T05:46:08.285Z,13.00
2018-09-14T05:48:34.895Z,13.10
2018-09-14T05:51:01.531Z,13.10
2018-09-14T05:53:28.671Z,13.20
2018-09-14T05:55:55.456Z,13.20
2018-09-14T05:58:22.072Z,13.30
2018-09-14T06:00:49.060Z,13.30
2018-09-14T06:03:15.951Z,13.40
2018-09-14T06:05:42.586Z,13.40
2018-09-14T06:08:09.195Z,13.50
2018-09-14T06:10:35.840Z,13.50
2018-09-14T06:13:02.459Z,13.50
2018-09-14T06:15:29.123Z,13.50
2018-09-14T06:17:55.738Z,13.40
2018-09-14T06:20:22.366Z,13.40
2018-09-14T06:22:49.007Z,13.50
2018-09-14T06:25:15.638Z,13.50
2018-09-14T06:27:42.242Z,13.50
2018-09-14T06:30:08.882Z,13.60
2018-09-14T06:32:35.524Z,13.60
2018-09-14T06:35:02.142Z,13.60
2018-09-14T06:37:29.056Z,13.70
2018-09-14T06:39:55.703Z,13.80
2018-09-14T06:42:22.443Z,13.80
2018-09-14T06:44:49.200Z,13.80
2018-09-14T06:47:15.823Z,13.80
2018-09-14T06:49:42.467Z,13.80
2018-09-14T06:52:09.447Z,13.80
2018-09-14T06:54:36.251Z,13.80
2018-09-14T06:57:02.891Z,13.80
2018-09-14T06:59:29.502Z,13.90
2018-09-14T07:01:56.168Z,13.90
2018-09-14T07:04:22.779Z,13.90
2018-09-14T07:06:49.426Z,13.90
2018-09-14T07:09:16.044Z,13.90
2018-09-14T07:11:42.686Z,13.90
2018-09-14T07:14:09.591Z,13.90
2018-09-14T07:16:36.242Z,13.90
2018-09-14T07:19:02.852Z,13.90
2018-09-14T07:21:29.490Z,13.90
2018-09-14T07:23:56.111Z,13.90
2018-09-14T07:26:22.784Z,13.80
2018-09-14T07:28:49.744Z,13.90
2018-09-14T07:31:16.332Z,13.90
2018-09-14T07:33:43.363Z,13.80
2018-09-14T07:36:10.027Z,13.80
2018-09-14T07:38:36.640Z,13.80
2018-09-14T07:41:03.252Z,13.90
2018-09-14T07:43:29.963Z,14.00
2018-09-14T07:45:56.567Z,14.00
2018-09-14T07:48:23.268Z,14.00
2018-09-14T07:50:49.834Z,14.00
2018-09-14T07:53:16.471Z,14.00
2018-09-14T07:55:43.083Z,14.10
2018-09-14T07:58:09.721Z,14.00
2018-09-14T08:00:36.399Z,13.90
2018-09-14T08:03:03.067Z,14.00
2018-09-14T08:05:29.680Z,14.00
2018-09-14T08:07:56.307Z,14.00
2018-09-14T08:10:22.914Z,14.10
2018-09-14T08:12:49.860Z,14.00
2018-09-14T08:15:16.467Z,14.10
2018-09-14T08:17:43.114Z,14.20
2018-09-14T08:20:09.796Z,14.20
2018-09-14T08:22:36.383Z,14.20
2018-09-14T08:25:03.027Z,14.30
2018-09-14T08:27:29.672Z,14.20
2018-09-14T08:29:56.318Z,14.30
2018-09-14T08:32:22.994Z,14.40
2018-09-14T08:34:49.610Z,14.50
2018-09-14T08:37:16.219Z,14.50
2018-09-14T08:39:42.835Z,14.70
2018-09-14T08:42:09.483Z,14.90
2018-09-14T08:44:36.118Z,15.10
2018-09-14T08:47:02.767Z,15.20
2018-09-14T08:49:29.983Z,15.40
2018-09-14T08:51:56.646Z,15.60
2018-09-14T08:54:23.279Z,15.90
2018-09-14T08:56:49.922Z,16.20
2018-09-14T08:59:16.562Z,16.70
2018-09-14T09:01:43.259Z,17.00
2018-09-14T09:04:09.882Z,17.30
2018-09-14T09:06:36.878Z,17.60
2018-09-14T09:09:05.456Z,18.20
2018-09-14T09:11:32.262Z,18.50
2018-09-14T09:13:58.811Z,18.50
2018-09-14T09:16:26.342Z,18.20
2018-09-14T09:18:52.959Z,17.90
2018-09-14T09:21:19.607Z,18.00
2018-09-14T09:23:46.223Z,18.80
2018-09-14T09:26:12.926Z,20.40
2018-09-14T09:28:39.806Z,21.10
2018-09-14T09:31:06.491Z,22.10
2018-09-14T09:33:33.091Z,22.30
2018-09-14T09:35:59.774Z,22.40
2018-09-14T09:38:26.402Z,21.80
2018-09-14T09:40:53.062Z,20.90
2018-09-14T09:43:19.713Z,20.50
2018-09-14T09:45:47.128Z,20.20
2018-09-14T09:48:13.745Z,20.10
2018-09-14T09:50:40.438Z,19.80
2018-09-14T09:53:07.567Z,19.50
2018-09-14T09:55:34.451Z,19.20
2018-09-14T09:58:01.094Z,19.10
2018-09-14T10:00:33.675Z,18.90
2018-09-14T10:03:06.179Z,18.70
2018-09-14T10:05:38.595Z,18.60
2018-09-14T10:08:05.235Z,18.40
2018-09-14T10:10:31.856Z,18.30
2018-09-14T10:12:58.499Z,18.40
2018-09-14T10:15:25.111Z,18.50
2018-09-14T10:17:51.758Z,18.80
2018-09-14T10:20:18.671Z,19.10
2018-09-14T10:22:45.306Z,19.50
2018-09-14T10:25:11.921Z,20.10
2018-09-14T10:27:38.559Z,20.50
2018-09-14T10:30:05.260Z,20.70
2018-09-14T10:32:31.891Z,21.20
2018-09-14T10:34:58.573Z,21.60
2018-09-14T10:37:25.243Z,22.20
2018-09-14T10:39:51.865Z,22.90
2018-09-14T10:42:18.499Z,24.10
2018-09-14T10:44:45.115Z,24.90
2018-09-14T10:47:11.747Z,25.20
2018-09-14T10:49:38.383Z,25.70
2018-09-14T10:52:05.186Z,25.50
2018-09-14T10:54:32.006Z,24.80
2018-09-14T10:56:58.651Z,24.50
2018-09-14T10:59:25.255Z,24.50
2018-09-14T11:01:51.915Z,24.80
2018-09-14T11:04:18.873Z,26.50
2018-09-14T11:06:45.612Z,27.90
2018-09-14T11:09:13.087Z,28.40
2018-09-14T11:11:40.110Z,27.10
2018-09-14T11:14:06.828Z,25.70
2018-09-14T11:16:33.471Z,25.10
2018-09-14T11:19:00.338Z,24.40
2018-09-14T11:21:26.956Z,24.10
2018-09-14T11:23:53.599Z,23.70
2018-09-14T11:26:20.339Z,23.50
2018-09-14T11:28:46.995Z,23.40
2018-09-14T11:31:13.631Z,23.20
2018-09-14T11:33:41.159Z,23.10
2018-09-14T11:36:07.771Z,22.60
2018-09-14T11:38:34.535Z,22.90
2018-09-14T11:41:01.885Z,23.60
2018-09-14T11:43:28.520Z,24.00
2018-09-14T11:45:55.190Z,24.20
2018-09-14T11:48:21.780Z,24.60
2018-09-14T11:50:48.423Z,24.50
2018-09-14T11:53:15.074Z,24.10
2018-09-14T11:55:41.695Z,23.20
2018-09-14T11:58:08.359Z,22.60
2018-09-14T12:00:35.158Z,21.90
2018-09-14T12:03:01.802Z,22.00
2018-09-14T12:05:28.426Z,23.90
2018-09-14T12:07:55.072Z,24.70
2018-09-14T12:10:21.690Z,24.80
2018-09-14T12:12:50.003Z,24.40
2018-09-14T12:15:16.610Z,23.60
2018-09-14T12:17:43.218Z,22.70
2018-09-14T12:20:09.880Z,22.10
2018-09-14T12:22:36.495Z,21.80
2018-09-14T12:25:03.143Z,22.20
2018-09-14T12:27:29.756Z,25.00
2018-09-14T12:29:56.418Z,27.40
2018-09-14T12:32:23.063Z,26.90
2018-09-14T12:34:49.702Z,25.10
2018-09-14T12:37:16.310Z,24.20
2018-09-14T12:39:42.963Z,23.20
2018-09-14T12:42:09.575Z,22.30
2018-09-14T12:44:36.215Z,21.90
2018-09-14T12:47:02.837Z,21.50
2018-09-14T12:49:29.574Z,21.30
2018-09-14T12:51:56.210Z,21.10
2018-09-14T12:54:22.838Z,21.10
2018-09-14T12:56:49.443Z,21.00
2018-09-14T12:59:16.804Z,21.00
2018-09-14T13:01:43.411Z,20.80
2018-09-14T13:04:10.098Z,20.50
2018-09-14T13:06:36.665Z,20.20
2018-09-14T13:09:05.571Z,20.10
2018-09-14T13:11:32.231Z,19.80
2018-09-14T13:13:58.825Z,19.70
2018-09-14T13:16:25.459Z,19.50
2018-09-14T13:18:52.072Z,19.40
2018-09-14T13:21:18.706Z,19.50
2018-09-14T13:23:45.361Z,19.80
2018-09-14T13:26:11.998Z,21.00
2018-09-14T13:28:39.199Z,22.70
2018-09-14T13:31:05.831Z,24.10
2018-09-14T13:33:32.440Z,26.10
2018-09-14T13:35:59.082Z,26.30
2018-09-14T13:38:25.727Z,26.70
2018-09-14T13:40:52.362Z,27.30
2018-09-14T13:43:18.963Z,27.20
2018-09-14T13:45:46.252Z,27.90
2018-09-14T13:48:12.913Z,28.60
2018-09-14T13:50:39.574Z,28.60
2018-09-14T13:53:06.187Z,28.30
2018-09-14T13:55:32.914Z,28.70
2018-09-14T13:57:59.856Z,29.30
2018-09-14T14:00:26.495Z,30.70
2018-09-14T14:02:53.140Z,32.20
2018-09-14T14:05:19.775Z,32.80
2018-09-14T14:07:46.395Z,33.30
2018-09-14T14:10:13.095Z,33.50
2018-09-14T14:12:39.734Z,32.10
2018-09-14T14:15:06.342Z,30.50
2018-09-14T14:17:32.999Z,29.70
2018-09-14T14:19:59.607Z,29.80
2018-09-14T14:22:26.265Z,30.00
2018-09-14T14:24:52.895Z,30.80
2018-09-14T14:27:19.554Z,31.40
2018-09-14T14:29:46.167Z,31.60
2018-09-14T14:32:12.803Z,31.20
2018-09-14T14:34:39.421Z,29.30
2018-09-14T14:37:06.071Z,27.40
2018-09-14T14:39:32.687Z,26.20
2018-09-14T14:41:59.331Z,26.50
2018-09-14T14:44:25.943Z,27.10
2018-09-14T14:46:52.602Z,28.00
2018-09-14T14:49:19.316Z,29.20
2018-09-14T14:51:46.212Z,29.30
2018-09-14T14:54:12.826Z,28.90
2018-09-14T14:56:39.476Z,27.60
2018-09-14T14:59:06.090Z,26.60
2018-09-14T15:01:32.735Z,25.50
2018-09-14T15:03:59.351Z,24.70
2018-09-14T15:06:25.995Z,23.90
2018-09-14T15:08:52.667Z,23.20
2018-09-14T15:11:19.407Z,22.80
2018-09-14T15:13:46.137Z,22.50
2018-09-14T15:16:12.716Z,22.40
2018-09-14T15:18:39.328Z,23.30
2018-09-14T15:21:06.928Z,24.70
2018-09-14T15:23:33.534Z,25.50
2018-09-14T15:26:00.138Z,25.90
2018-09-14T15:28:26.811Z,26.30
2018-09-14T15:30:53.459Z,26.60
2018-09-14T15:33:20.138Z,26.50
2018-09-14T15:35:47.871Z,26.60
2018-09-14T15:38:14.563Z,27.00
2018-09-14T15:40:41.191Z,27.00
2018-09-14T15:43:07.866Z,26.70
2018-09-14T15:45:34.571Z,26.40
2018-09-14T15:48:01.219Z,26.30
2018-09-14T15:50:27.831Z,26.50
2018-09-14T15:52:54.499Z,26.50
2018-09-14T15:55:21.109Z,26.70
2018-09-14T15:57:47.844Z,26.80
2018-09-14T16:00:14.439Z,26.70
2018-09-14T16:02:41.398Z,26.50
2018-09-14T16:05:08.280Z,25.80
2018-09-14T16:07:34.943Z,25.40
2018-09-14T16:10:01.571Z,25.50
2018-09-14T16:12:28.255Z,25.00
2018-09-14T16:14:54.863Z,24.40
2018-09-14T16:17:21.739Z,23.90
2018-09-14T16:19:50.120Z,23.60
2018-09-14T16:22:17.295Z,23.40
2018-09-14T16:24:43.903Z,23.30
2018-09-14T16:27:10.538Z,23.00
2018-09-14T16:29:37.279Z,22.50
2018-09-14T16:32:03.932Z,22.00
2018-09-14T16:34:30.538Z,22.00
2018-09-14T16:36:57.193Z,21.60
2018-09-14T16:39:23.835Z,21.00
2018-09-14T16:41:50.451Z,20.40
2018-09-14T16:44:17.091Z,19.90
2018-09-14T16:46:43.706Z,19.50
2018-09-14T16:49:10.351Z,19.10
2018-09-14T16:51:37.044Z,18.90
2018-09-14T16:54:03.657Z,18.70
2018-09-14T16:56:30.282Z,18.60
2018-09-14T16:58:57.463Z,18.40
2018-09-14T17:01:24.066Z,18.30
2018-09-14T17:03:50.763Z,18.00
2018-09-14T17:06:17.691Z,17.80
2018-09-14T17:08:44.330Z,17.50
2018-09-14T17:11:11.019Z,17.40
2018-09-14T17:13:37.654Z,17.20
2018-09-14T17:16:04.270Z,17.00
2018-09-14T17:18:30.908Z,16.90
2018-09-14T17:20:57.539Z,16.80
2018-09-14T17:23:24.180Z,16.60
2018-09-14T17:25:50.799Z,16.50
2018-09-14T17:28:17.447Z,16.30
2018-09-14T17:30:44.063Z,16.20
2018-09-14T17:33:11.021Z,16.00
2018-09-14T17:35:37.659Z,15.90
2018-09-14T17:38:04.366Z,15.80
2018-09-14T17:40:31.170Z,15.80
2018-09-14T17:42:58.125Z,15.70
2018-09-14T17:45:24.741Z,15.70
2018-09-14T17:47:51.387Z,15.60
2018-09-14T17:50:18.027Z,15.60
2018-09-14T17:52:44.698Z,15.60
2018-09-14T17:55:12.519Z,15.50
2018-09-14T17:57:39.127Z,15.50
2018-09-14T18:00:06.215Z,15.60
2018-09-14T18:02:32.859Z,15.60
2018-09-14T18:04:59.504Z,15.50
2018-09-14T18:07:26.127Z,15.50
2018-09-14T18:09:52.770Z,15.40
2018-09-14T18:12:19.440Z,15.30
2018-09-14T18:14:46.087Z,15.20
2018-09-14T18:17:12.700Z,15.10
2018-09-14T18:19:39.383Z,15.10
2018-09-14T18:22:05.999Z,15.10
2018-09-14T18:24:32.658Z,15.10
2018-09-14T18:26:59.273Z,15.10
2018-09-14T18:29:25.915Z,15.10
2018-09-14T18:31:52.558Z,15.10
2018-09-14T18:34:19.231Z,15.10
2018-09-14T18:36:45.843Z,15.10
2018-09-14T18:39:12.833Z,15.00
2018-09-14T18:41:39.649Z,15.00
2018-09-14T18:44:06.375Z,15.00
2018-09-14T18:46:33.161Z,15.00
2018-09-14T18:48:59.803Z,14.90
2018-09-14T18:51:26.475Z,14.80
2018-09-14T18:53:53.151Z,14.70
2018-09-14T18:56:19.773Z,14.70
2018-09-14T18:58:46.411Z,14.60
2018-09-14T19:01:13.191Z,14.60
2018-09-14T19:03:39.811Z,14.60
2018-09-14T19:06:06.448Z,14.50
2018-09-14T19:08:33.071Z,14.50
2018-09-14T19:10:59.814Z,14.40
2018-09-14T19:13:26.454Z,14.40
2018-09-14T19:15:53.095Z,14.40
2018-09-14T19:18:19.715Z,14.30
2018-09-14T19:20:46.359Z,14.30
2018-09-14T19:23:12.979Z,14.30
2018-09-14T19:25:39.623Z,14.20
2018-09-14T19:28:06.239Z,14.20
2018-09-14T19:30:32.878Z,14.20
2018-09-14T19:32:59.490Z,14.10
2018-09-14T19:35:26.130Z,14.10
2018-09-14T19:40:37.155Z,14.10
2018-09-14T19:43:03.815Z,14.00
2018-09-14T19:45:30.475Z,14.00
2018-09-14T19:47:57.101Z,13.90
2018-09-14T19:50:23.736Z,13.90
2018-09-14T19:52:50.727Z,13.80
2018-09-14T19:55:17.347Z,13.80
2018-09-14T19:57:43.994Z,13.70
2018-09-14T20:00:10.662Z,13.70
2018-09-14T20:02:37.473Z,13.70
2018-09-14T20:05:04.196Z,13.80
2018-09-14T20:07:30.831Z,13.80
2018-09-14T20:09:57.497Z,13.90
2018-09-14T20:12:24.440Z,13.90
2018-09-14T20:14:51.079Z,13.80
2018-09-14T20:17:17.692Z,13.80
2018-09-14T20:19:44.538Z,13.70
2018-09-14T20:22:11.146Z,13.70
2018-09-14T20:24:37.832Z,13.60
2018-09-14T20:27:04.471Z,13.50
2018-09-14T20:29:31.882Z,13.50
2018-09-14T20:31:58.512Z,13.40
2018-09-14T20:34:25.139Z,13.30
2018-09-14T20:36:51.775Z,13.30
2018-09-14T20:39:18.419Z,13.30
2018-09-14T20:41:45.295Z,13.30
2018-09-14T20:44:11.910Z,13.30
2018-09-14T20:46:38.539Z,13.30
2018-09-14T20:49:05.493Z,13.30
2018-09-14T20:51:32.184Z,13.30
2018-09-14T20:53:59.022Z,13.30
2018-09-14T20:56:25.665Z,13.20
2018-09-14T20:58:52.278Z,13.20
2018-09-14T21:01:18.916Z,13.20
2018-09-14T21:03:45.534Z,13.20
2018-09-14T21:06:12.176Z,13.10
2018-09-14T21:08:38.778Z,13.10
2018-09-14T21:11:05.482Z,13.20
2018-09-14T21:13:32.094Z,13.20
2018-09-14T21:15:58.727Z,13.30
2018-09-14T21:18:25.339Z,13.40
2018-09-14T21:20:52.034Z,13.50
2018-09-14T21:23:18.751Z,13.50
2018-09-14T21:25:45.399Z,13.50
2018-09-14T21:28:12.012Z,13.50
2018-09-14T21:30:38.667Z,13.50
2018-09-14T21:33:05.306Z,13.50
2018-09-14T21:35:31.971Z,13.40
2018-09-14T21:37:58.583Z,13.50
2018-09-14T21:40:25.279Z,13.60
2018-09-14T21:42:51.856Z,13.70
2018-09-14T21:45:18.475Z,13.80
2018-09-14T21:47:45.610Z,13.90
2018-09-14T21:50:12.223Z,13.90
2018-09-14T21:52:39.388Z,14.00
2018-09-14T21:55:06.027Z,14.10
2018-09-14T21:57:32.704Z,14.20
2018-09-14T22:00:03.950Z,14.20
2018-09-14T22:02:30.615Z,14.20
2018-09-14T22:04:57.233Z,14.10
2018-09-14T22:07:23.879Z,14.10
2018-09-14T22:09:50.500Z,14.00
2018-09-14T22:12:17.151Z,14.00
2018-09-14T22:14:43.817Z,13.90
2018-09-14T22:17:10.487Z,13.90
2018-09-14T22:19:37.107Z,13.80
2018-09-14T22:22:03.833Z,13.80
2018-09-14T22:24:30.460Z,13.70
2018-09-14T22:26:57.107Z,13.50
2018-09-14T22:29:23.724Z,13.50
2018-09-14T22:31:50.376Z,13.40
2018-09-14T22:34:16.996Z,13.30
2018-09-14T22:36:43.643Z,13.30
2018-09-14T22:39:11.779Z,13.20
2018-09-14T22:41:38.427Z,13.00
2018-09-14T22:44:05.044Z,12.90
2018-09-14T22:46:31.688Z,12.80
2018-09-14T22:48:58.634Z,12.80
2018-09-14T22:51:25.302Z,12.70
2018-09-14T22:53:51.955Z,12.60
2018-09-14T22:56:18.575Z,12.60
2018-09-14T22:58:45.229Z,12.50
2018-09-14T23:01:17.167Z,12.40
2018-09-14T23:03:44.010Z,12.30
2018-09-14T23:06:10.641Z,12.30
2018-09-14T23:08:37.282Z,12.20
2018-09-14T23:11:03.910Z,12.20
2018-09-14T23:13:30.554Z,12.20
2018-09-14T23:15:58.814Z,12.20
2018-09-14T23:18:31.187Z,12.20
2018-09-14T23:20:58.349Z,12.20
2018-09-14T23:23:25.162Z,12.20
2018-09-14T23:25:53.174Z,12.20
2018-09-14T23:28:19.918Z,12.20
2018-09-14T23:30:46.558Z,12.20
2018-09-14T23:33:13.214Z,12.20
2018-09-14T23:35:39.830Z,12.10
2018-09-14T23:38:06.471Z,12.10
2018-09-14T23:40:33.087Z,12.10
2018-09-14T23:42:59.736Z,12.10
2018-09-14T23:45:26.358Z,12.10
2018-09-14T23:47:53.003Z,12.10
2018-09-14T23:50:19.623Z,12.20
2018-09-14T23:52:46.278Z,12.20
2018-09-14T23:55:12.890Z,12.20
2018-09-14T23:57:39.834Z,12.20
